Alex, Minnesota
Current Conditions -  °F | °C
As of 7:18 AM on Thursday 23 Oct 2014 (Local Time) from KAXN Reporting Station
Haze Haze  
Wind Chill: 42°   Ceiling: 100
Heat Index: 45°   Visibility: 1.2mi
Dew Point: 44°   Wind: 6mph
Humidity: 97%   Direction: 230°SW
Pressure: 29.97"   Gusts: NA
Location:  45.8551°N, 95.4333°W
Report Text: KAXN 231218Z AUTO 23005KT 1 1/4SM BR BKN001 07/07 A2997 RMK AO2 T00720067
Loading
Personal Weather Stations






























Interactive Weather Map
Tropical Storm Tracking
New forecast layout! Learn more

10-Day Weather Forecast

Advertisements
Track Severe Weather on mobile